Terminal Aerodrome Forecast
Issued by NWS Buffalo, NY

Home | Current Version | Previous Version | Text Only | Print | Product List | Glossary On
Versions: 1 2 3 4 5 6 7 8 9 10 11 12 13 14 15 16 17 18 19 20 21 22 23 24 25 26 27 28 29 30 31
125
FTUS41 KBUF 010429 AAE
TAFBUF
TAF AMD
KBUF 010429Z 0104/0124 04006KT P6SM VCSH BKN040 WS020/21040KT
     FM010900 18008KT P6SM BKN080 WS020/21040KT
     FM011200 19012KT P6SM BKN070
     FM011500 19014G22KT P6SM OVC070
     FM011700 20013KT P6SM VCSH OVC040
     FM012000 21014G20KT 4SM SHRA VCTS OVC025CB=

USA.gov is the U.S. government's official web portal to all federal, state and local government web resources and services.